createdAt,value
2017-05-13T10:25:34.334Z,19.42
2017-05-13T10:26:02.576Z,19.47
2017-05-13T10:26:30.875Z,19.47
2017-05-13T10:26:59.115Z,19.4
2017-05-13T10:27:27.390Z,19.49
2017-05-13T10:27:55.614Z,19.53
2017-05-13T10:28:23.792Z,19.57
2017-05-13T10:28:51.896Z,19.72
2017-05-13T10:29:20.005Z,19.71
2017-05-13T10:29:48.003Z,19.8
2017-05-13T10:30:16.261Z,19.87
2017-05-13T10:30:44.525Z,19.98
2017-05-13T10:31:12.716Z,20.02
2017-05-13T10:31:40.827Z,20.05
2017-05-13T10:32:08.678Z,20.16
2017-05-13T10:32:36.906Z,20.23
2017-05-13T10:33:05.063Z,20.3
2017-05-13T10:33:33.360Z,20.3
2017-05-13T10:34:01.588Z,20.48
2017-05-13T10:34:29.863Z,20.41
2017-05-13T10:34:57.937Z,20.6
2017-05-13T10:35:26.311Z,20.56
2017-05-13T10:35:54.358Z,20.72
2017-05-13T10:36:22.611Z,20.75
2017-05-13T10:36:50.776Z,20.76
2017-05-13T10:37:18.910Z,20.79
2017-05-13T10:37:47.155Z,20.85
2017-05-13T10:38:15.446Z,20.88
2017-05-13T10:38:43.621Z,20.91
2017-05-13T10:39:11.727Z,20.96
2017-05-13T10:39:39.906Z,21.01
2017-05-13T10:40:08.172Z,20.98
2017-05-13T10:40:36.399Z,21.12
2017-05-13T10:41:04.564Z,21.12
2017-05-13T10:41:32.538Z,21.25
2017-05-13T10:42:00.755Z,21.31
2017-05-13T10:42:28.728Z,21.28
2017-05-13T10:42:57.019Z,21.28
2017-05-13T10:43:25.156Z,21.28
2017-05-13T10:43:53.324Z,21.34
2017-05-13T10:44:21.372Z,21.38
2017-05-13T10:44:49.569Z,21.46
2017-05-13T10:45:17.787Z,21.43
2017-05-13T10:45:45.776Z,21.37
2017-05-13T10:46:14.098Z,21.4
2017-05-13T10:46:42.200Z,21.46
2017-05-13T10:47:10.359Z,21.37
2017-05-13T10:47:38.421Z,21.27
2017-05-13T10:48:06.678Z,21.27
2017-05-13T10:48:34.688Z,21.15
2017-05-13T10:49:02.879Z,21.11
2017-05-13T10:49:31.185Z,21.01
2017-05-13T10:49:59.287Z,21
2017-05-13T10:50:27.483Z,20.88
2017-05-13T10:50:55.679Z,20.93
2017-05-13T10:51:23.859Z,20.88
2017-05-13T10:51:51.961Z,20.86
2017-05-13T10:52:20.058Z,20.86
2017-05-13T10:52:48.328Z,20.88
2017-05-13T10:53:16.565Z,20.9
2017-05-13T10:53:44.797Z,20.88
2017-05-13T10:54:13.031Z,20.93
2017-05-13T10:54:41.219Z,21.01
2017-05-13T10:55:09.419Z,21
2017-05-13T10:55:37.640Z,20.97
2017-05-13T10:56:05.872Z,20.97
2017-05-13T10:56:34.075Z,20.98
2017-05-13T10:57:02.331Z,21.01
2017-05-13T10:57:30.460Z,20.94
2017-05-13T10:57:58.638Z,20.96
2017-05-13T10:58:26.926Z,21.03
2017-05-13T10:58:54.868Z,21.04
2017-05-13T10:59:23.153Z,21.11
2017-05-13T10:59:51.235Z,21.12
2017-05-13T11:00:19.340Z,21.28
2017-05-13T11:00:47.447Z,21.28
2017-05-13T11:01:15.695Z,21.37
2017-05-13T11:01:43.750Z,21.4
2017-05-13T11:02:11.878Z,21.49
2017-05-13T11:02:39.856Z,21.43
2017-05-13T11:03:08.032Z,21.41
2017-05-13T11:03:36.142Z,21.4
2017-05-13T11:04:04.339Z,21.38
2017-05-13T11:04:32.522Z,21.38
2017-05-13T11:05:00.818Z,21.4
2017-05-13T11:05:29.106Z,21.4
2017-05-13T11:05:57.324Z,21.43
2017-05-13T11:06:25.450Z,21.38
2017-05-13T11:06:53.641Z,21.38
2017-05-13T11:07:21.734Z,21.36
2017-05-13T11:07:49.766Z,21.31
2017-05-13T11:08:17.939Z,21.4
2017-05-13T11:08:46.153Z,21.43
2017-05-13T11:09:14.354Z,21.46
2017-05-13T11:09:42.668Z,21.61
2017-05-13T11:10:10.628Z,21.59
2017-05-13T11:10:38.886Z,21.76
2017-05-13T11:11:07.321Z,21.78
2017-05-13T11:11:35.292Z,21.8
2017-05-13T11:12:03.553Z,21.99
2017-05-13T11:12:31.683Z,22.04
2017-05-13T11:12:59.776Z,22
2017-05-13T11:13:27.949Z,22.02
2017-05-13T11:13:56.123Z,22.2
2017-05-13T11:14:24.226Z,22.27
2017-05-13T11:14:52.381Z,22.34
2017-05-13T11:15:20.598Z,22.39
2017-05-13T11:15:48.805Z,22.54
2017-05-13T11:16:17.045Z,22.46
2017-05-13T11:16:45.253Z,22.6
2017-05-13T11:17:13.559Z,22.55
2017-05-13T11:17:41.834Z,22.55
2017-05-13T11:18:10.072Z,22.66
2017-05-13T11:18:38.349Z,22.78
2017-05-13T11:19:06.494Z,22.78
2017-05-13T11:19:34.733Z,22.89
2017-05-13T11:20:02.870Z,22.99
2017-05-13T11:20:31.071Z,23.07
2017-05-13T11:20:59.245Z,23.04
2017-05-13T11:21:27.546Z,23.07
2017-05-13T11:21:55.613Z,23.16
2017-05-13T11:22:23.873Z,23.25
2017-05-13T11:22:52.168Z,23.26
2017-05-13T11:23:20.326Z,23.4
2017-05-13T11:23:48.407Z,23.55
2017-05-13T11:24:16.651Z,23.5
2017-05-13T11:24:45.093Z,23.53
2017-05-13T11:25:13.329Z,23.59
2017-05-13T11:25:41.506Z,23.63
2017-05-13T11:26:09.796Z,23.57
2017-05-13T11:26:37.906Z,23.6
2017-05-13T11:27:06.050Z,23.6
2017-05-13T11:27:34.178Z,23.56
2017-05-13T11:28:02.287Z,23.56
2017-05-13T11:28:30.235Z,23.53
2017-05-13T11:28:58.398Z,23.4
2017-05-13T11:29:26.557Z,23.42
2017-05-13T11:29:54.860Z,23.34
2017-05-13T11:30:22.952Z,23.32
2017-05-13T11:30:51.157Z,23.28
2017-05-13T11:31:19.638Z,23.12
2017-05-13T11:31:47.918Z,23.06
2017-05-13T11:32:16.177Z,23.04
2017-05-13T11:32:44.450Z,22.92
2017-05-13T11:33:12.625Z,22.85
2017-05-13T11:33:40.831Z,22.69
2017-05-13T11:34:09.105Z,22.63
2017-05-13T11:34:37.401Z,22.67
2017-05-13T11:35:05.607Z,22.55
2017-05-13T11:35:33.495Z,22.49
2017-05-13T11:36:01.667Z,22.46
2017-05-13T11:36:29.916Z,22.48
2017-05-13T11:36:58.092Z,22.38
2017-05-13T11:37:26.247Z,22.23
2017-05-13T11:37:54.448Z,22.18
2017-05-13T11:38:22.746Z,22.12
2017-05-13T11:38:50.852Z,22.08
2017-05-13T11:39:18.977Z,22.07
2017-05-13T11:39:47.305Z,21.94
2017-05-13T11:40:15.370Z,21.92
2017-05-13T11:40:43.539Z,21.92
2017-05-13T11:41:11.763Z,21.93
2017-05-13T11:41:40.140Z,21.83
2017-05-13T11:42:08.488Z,21.96
2017-05-13T11:42:36.826Z,21.86
2017-05-13T11:43:05.060Z,21.89
2017-05-13T11:43:33.234Z,21.93
2017-05-13T11:44:01.463Z,21.74
2017-05-13T11:44:29.799Z,21.67
2017-05-13T11:44:58.255Z,21.56
2017-05-13T11:45:26.604Z,21.56
2017-05-13T11:45:54.998Z,21.64
2017-05-13T11:46:23.257Z,21.43
2017-05-13T11:46:51.526Z,21.41
2017-05-13T11:47:19.791Z,21.45
2017-05-13T11:47:48.115Z,21.41
2017-05-13T11:48:16.325Z,21.33
2017-05-13T11:48:44.515Z,21.27
2017-05-13T11:49:12.808Z,21.33
2017-05-13T11:49:41.109Z,21.18
2017-05-13T11:50:09.184Z,21.3
2017-05-13T11:50:37.537Z,21.28
2017-05-13T11:51:05.626Z,21.23
2017-05-13T11:51:33.857Z,21.28
2017-05-13T11:52:02.075Z,21.3
2017-05-13T11:52:30.287Z,21.21
2017-05-13T11:52:58.503Z,21.31
2017-05-13T11:53:26.694Z,21.13
2017-05-13T11:53:54.970Z,21.33
2017-05-13T11:54:23.067Z,21.3
2017-05-13T11:54:51.230Z,21.31
2017-05-13T11:55:19.265Z,21.33
2017-05-13T11:55:47.440Z,21.38
2017-05-13T11:56:15.652Z,21.34
2017-05-13T11:56:44.026Z,21.4
2017-05-13T11:57:12.349Z,21.43
2017-05-13T11:57:40.579Z,21.37
2017-05-13T11:58:08.799Z,21.37
2017-05-13T11:58:37.023Z,21.41
2017-05-13T11:59:05.192Z,21.4
2017-05-13T11:59:33.518Z,21.49
2017-05-13T12:00:01.730Z,21.56
2017-05-13T12:00:29.909Z,21.58
2017-05-13T12:00:58.185Z,21.59
2017-05-13T12:01:26.516Z,21.66
2017-05-13T12:01:55.032Z,21.58
2017-05-13T12:02:23.186Z,21.62
2017-05-13T12:02:51.371Z,21.64
2017-05-13T12:03:19.673Z,21.53
2017-05-13T12:03:47.662Z,21.48
2017-05-13T12:04:15.996Z,21.46
2017-05-13T12:04:44.193Z,21.41
2017-05-13T12:05:12.485Z,21.4
2017-05-13T12:05:40.778Z,21.31
2017-05-13T12:06:09.028Z,21.3
2017-05-13T12:06:37.241Z,21.27
2017-05-13T12:07:05.498Z,21.4
2017-05-13T12:07:33.600Z,21.38
2017-05-13T12:08:02.087Z,21.38
2017-05-13T12:08:30.399Z,21.4
2017-05-13T12:08:58.761Z,21.36
2017-05-13T12:09:27.122Z,21.3
2017-05-13T12:09:55.773Z,21.28
2017-05-13T12:10:24.362Z,21.31
2017-05-13T12:10:52.641Z,21.27
2017-05-13T12:11:20.871Z,21.36
2017-05-13T12:11:49.221Z,21.33
2017-05-13T12:12:17.557Z,21.27
2017-05-13T12:12:45.737Z,21.31
2017-05-13T12:13:13.936Z,21.3
2017-05-13T12:13:42.122Z,21.25
2017-05-13T12:14:10.258Z,21.41
2017-05-13T12:14:38.330Z,21.38
2017-05-13T12:15:07.028Z,21.45
2017-05-13T12:15:35.262Z,21.48
2017-05-13T12:16:03.433Z,21.4
2017-05-13T12:16:31.580Z,21.45
2017-05-13T12:16:59.827Z,21.46
2017-05-13T12:17:27.981Z,21.56
2017-05-13T12:17:56.335Z,21.55
2017-05-13T12:18:24.461Z,21.48
2017-05-13T12:18:52.715Z,21.49
2017-05-13T12:19:21.000Z,21.4
2017-05-13T12:19:49.321Z,21.43
2017-05-13T12:20:17.577Z,21.43
2017-05-13T12:20:45.783Z,21.49
2017-05-13T12:21:14.003Z,21.45
2017-05-13T12:21:42.165Z,21.46
2017-05-13T12:22:10.403Z,21.46
2017-05-13T12:22:38.477Z,21.37
2017-05-13T12:23:06.644Z,21.37
2017-05-13T12:23:34.757Z,21.36
2017-05-13T12:24:03.020Z,21.27
2017-05-13T12:24:31.271Z,21.28
2017-05-13T12:24:59.592Z,21.31
2017-05-13T12:25:27.758Z,21.21
2017-05-13T12:25:56.105Z,21.27
2017-05-13T12:26:24.184Z,21.19
2017-05-13T12:26:52.504Z,21.11
2017-05-13T12:27:20.712Z,21.16
2017-05-13T12:27:48.893Z,21.06
2017-05-13T12:28:17.168Z,21.19
2017-05-13T12:28:45.424Z,21.18
2017-05-13T12:29:13.619Z,21.16
2017-05-13T12:29:41.707Z,21.12
2017-05-13T12:30:09.932Z,21.16
2017-05-13T12:30:38.116Z,21.21
2017-05-13T12:31:06.404Z,21.23
2017-05-13T12:31:34.524Z,21.27
2017-05-13T12:32:02.616Z,21.41
2017-05-13T12:32:30.988Z,21.34
2017-05-13T12:32:59.273Z,21.37
2017-05-13T12:33:27.418Z,21.31
2017-05-13T12:33:55.664Z,21.33
2017-05-13T12:34:23.639Z,21.38
2017-05-13T12:34:51.780Z,21.37
2017-05-13T12:35:19.963Z,21.38
2017-05-13T12:35:48.030Z,21.34
2017-05-13T12:36:16.121Z,21.4
2017-05-13T12:36:44.339Z,21.41
2017-05-13T12:37:12.637Z,21.38
2017-05-13T12:37:40.869Z,21.4
2017-05-13T12:38:09.031Z,21.45
2017-05-13T12:38:37.037Z,21.46
2017-05-13T12:39:05.097Z,21.46
2017-05-13T12:39:33.112Z,21.4
2017-05-13T12:40:01.325Z,21.48
2017-05-13T12:40:29.614Z,21.46
2017-05-13T12:40:57.882Z,21.45
2017-05-13T12:41:25.892Z,21.48
2017-05-13T12:41:54.332Z,21.49
2017-05-13T12:42:23.014Z,21.55
2017-05-13T12:42:51.219Z,21.53
2017-05-13T12:43:19.395Z,21.58
2017-05-13T12:43:47.746Z,21.58
2017-05-13T12:44:15.868Z,21.58
2017-05-13T12:44:43.949Z,21.68
2017-05-13T12:45:12.178Z,21.64
2017-05-13T12:45:40.547Z,21.59
2017-05-13T12:46:08.894Z,21.58
2017-05-13T12:46:37.135Z,21.56
2017-05-13T12:47:05.425Z,21.64
2017-05-13T12:47:34.067Z,21.71
2017-05-13T12:48:02.253Z,21.67
2017-05-13T12:48:30.458Z,21.67
2017-05-13T12:48:58.708Z,21.83
2017-05-13T12:49:26.903Z,21.85
2017-05-13T12:49:55.096Z,21.9
2017-05-13T12:50:23.147Z,21.89
2017-05-13T12:50:51.343Z,21.86
2017-05-13T12:51:19.443Z,21.97
2017-05-13T12:51:47.562Z,21.94
2017-05-13T12:52:15.831Z,22.02
2017-05-13T12:52:44.228Z,22.02
2017-05-13T12:53:12.469Z,22.12
2017-05-13T12:53:40.756Z,22.2
2017-05-13T12:54:08.776Z,22.2
2017-05-13T12:54:36.979Z,22.18
2017-05-13T12:55:05.177Z,22.22
2017-05-13T12:55:33.277Z,22.26
2017-05-13T12:56:01.550Z,22.26
2017-05-13T12:56:29.825Z,22.18
2017-05-13T12:56:58.684Z,22.18
2017-05-13T12:57:29.953Z,22.3
2017-05-13T12:57:58.242Z,22.29
2017-05-13T12:58:26.352Z,22.23
2017-05-13T12:58:54.422Z,22.24
2017-05-13T12:59:22.624Z,22.22
2017-05-13T12:59:51.075Z,22.22
2017-05-13T13:00:19.492Z,22.14
2017-05-13T13:00:47.809Z,22.18
2017-05-13T13:01:16.033Z,22.16
2017-05-13T13:01:44.154Z,22.14
2017-05-13T13:02:12.273Z,22.15
2017-05-13T13:02:40.635Z,22.23
2017-05-13T13:03:08.840Z,22.16
2017-05-13T13:03:37.036Z,22.23
2017-05-13T13:04:05.316Z,22.23
2017-05-13T13:04:33.490Z,22.27
2017-05-13T13:05:01.548Z,22.34
2017-05-13T13:05:29.803Z,22.34
2017-05-13T13:05:57.958Z,22.34
2017-05-13T13:06:26.214Z,22.34
2017-05-13T13:06:54.414Z,22.34
2017-05-13T13:07:22.676Z,22.36
2017-05-13T13:07:51.000Z,22.38
2017-05-13T13:08:18.963Z,22.36
2017-05-13T13:08:46.971Z,22.34
2017-05-13T13:09:15.079Z,22.3
2017-05-13T13:09:43.263Z,22.3
2017-05-13T13:10:11.517Z,22.23
2017-05-13T13:10:39.686Z,22.33
2017-05-13T13:11:07.707Z,22.23
2017-05-13T13:11:35.988Z,22.33
2017-05-13T13:12:04.061Z,22.36
2017-05-13T13:12:32.339Z,22.39
2017-05-13T13:13:00.606Z,22.36
2017-05-13T13:13:28.666Z,22.42
2017-05-13T13:13:56.832Z,22.39
2017-05-13T13:14:24.935Z,22.38
2017-05-13T13:14:53.234Z,22.42
2017-05-13T13:15:21.528Z,22.45
2017-05-13T13:15:49.829Z,22.39
2017-05-13T13:16:18.145Z,22.41
2017-05-13T13:16:46.325Z,22.46
2017-05-13T13:17:14.519Z,22.33
2017-05-13T13:17:42.717Z,22.38
2017-05-13T13:18:11.126Z,22.51
2017-05-13T13:18:39.554Z,22.51
2017-05-13T13:19:07.833Z,22.52
2017-05-13T13:19:36.039Z,22.51
2017-05-13T13:20:04.212Z,22.52
2017-05-13T13:20:32.347Z,22.59
2017-05-13T13:21:00.544Z,22.67
2017-05-13T13:21:28.784Z,22.66
2017-05-13T13:21:56.755Z,22.69
2017-05-13T13:22:25.026Z,22.84
2017-05-13T13:22:53.151Z,22.85
2017-05-13T13:23:21.581Z,22.85
2017-05-13T13:23:49.800Z,22.86
2017-05-13T13:24:17.977Z,22.99
2017-05-13T13:24:46.041Z,22.99
2017-05-13T13:25:14.201Z,22.94
2017-05-13T13:25:42.455Z,22.96
2017-05-13T13:26:10.602Z,23.06
2017-05-13T13:26:38.702Z,23.1
2017-05-13T13:27:07.047Z,22.97
2017-05-13T13:27:35.481Z,23.09
2017-05-13T13:28:03.890Z,23.03
2017-05-13T13:28:31.996Z,23.06
2017-05-13T13:29:00.302Z,23.09
2017-05-13T13:29:28.452Z,23.1
2017-05-13T13:29:56.612Z,23.14
2017-05-13T13:30:24.884Z,23.24
2017-05-13T13:30:53.033Z,23.32
2017-05-13T13:31:21.106Z,23.28
2017-05-13T13:31:49.335Z,23.32
2017-05-13T13:32:17.607Z,23.28
2017-05-13T13:32:45.811Z,23.34
2017-05-13T13:33:14.223Z,23.26
2017-05-13T13:33:42.531Z,23.32
2017-05-13T13:34:10.729Z,23.37
2017-05-13T13:34:38.989Z,23.38
2017-05-13T13:35:07.221Z,23.42
2017-05-13T13:35:35.564Z,23.52
2017-05-13T13:36:03.767Z,23.62
2017-05-13T13:36:31.986Z,23.71
2017-05-13T13:37:00.223Z,23.81
2017-05-13T13:37:28.353Z,23.75
2017-05-13T13:37:56.595Z,23.82
2017-05-13T13:38:24.872Z,23.92
2017-05-13T13:38:52.828Z,23.97
2017-05-13T13:39:21.035Z,24.03
2017-05-13T13:39:49.260Z,24.07
2017-05-13T13:40:17.387Z,24.15
2017-05-13T13:40:45.677Z,24.18
2017-05-13T13:41:13.848Z,24.33
2017-05-13T13:41:42.161Z,24.3
2017-05-13T13:42:10.468Z,24.39
2017-05-13T13:42:38.730Z,24.34
2017-05-13T13:43:06.996Z,24.51
2017-05-13T13:43:35.389Z,24.61
2017-05-13T13:44:03.627Z,24.64
2017-05-13T13:44:31.813Z,24.71
2017-05-13T13:45:00.111Z,24.77
2017-05-13T13:45:28.437Z,24.83
2017-05-13T13:45:56.578Z,24.8
2017-05-13T13:46:24.794Z,24.93
2017-05-13T13:46:53.071Z,24.94
2017-05-13T13:47:21.153Z,25.15
2017-05-13T13:47:49.443Z,25.01
2017-05-13T13:48:17.476Z,25
2017-05-13T13:48:45.801Z,25.11
2017-05-13T13:49:13.938Z,25.17
2017-05-13T13:49:42.113Z,25.12
2017-05-13T13:50:10.308Z,25.12
2017-05-13T13:50:38.469Z,25.27
2017-05-13T13:51:06.644Z,25.27
2017-05-13T13:51:34.921Z,25.27
2017-05-13T13:52:03.189Z,25.26
2017-05-13T13:52:31.458Z,25.17
2017-05-13T13:52:59.711Z,25.14
2017-05-13T13:53:28.074Z,25.12
2017-05-13T13:53:56.288Z,25.14
2017-05-13T13:54:24.488Z,25.24
2017-05-13T13:54:52.777Z,25.27
2017-05-13T13:55:20.795Z,25.34
2017-05-13T13:55:48.880Z,25.34
2017-05-13T13:56:17.096Z,25.3
2017-05-13T13:56:45.362Z,25.39
2017-05-13T13:57:13.690Z,25.47
2017-05-13T13:57:41.967Z,25.42
2017-05-13T13:58:10.237Z,25.52
2017-05-13T13:58:38.429Z,25.54
2017-05-13T13:59:06.701Z,25.56
2017-05-13T13:59:34.852Z,25.67
2017-05-13T14:00:03.173Z,25.76
2017-05-13T14:00:31.336Z,25.78
2017-05-13T14:00:59.520Z,25.78
2017-05-13T14:01:27.767Z,25.84
2017-05-13T14:01:55.942Z,25.89
2017-05-13T14:02:24.224Z,26.03
2017-05-13T14:02:52.392Z,25.99
2017-05-13T14:03:20.560Z,25.96
2017-05-13T14:03:48.856Z,26
2017-05-13T14:04:16.993Z,25.96
2017-05-13T14:04:45.275Z,25.99
2017-05-13T14:05:13.479Z,26.04
2017-05-13T14:05:41.731Z,25.89
2017-05-13T14:06:10.039Z,25.91
2017-05-13T14:06:38.451Z,25.93
2017-05-13T14:07:06.600Z,25.91
2017-05-13T14:07:34.681Z,25.81
2017-05-13T14:08:02.878Z,25.78
2017-05-13T14:08:30.952Z,25.93
2017-05-13T14:08:59.244Z,25.88
2017-05-13T14:09:27.374Z,25.94
2017-05-13T14:09:55.537Z,25.97
2017-05-13T14:10:23.755Z,26.06
2017-05-13T14:10:51.976Z,26.06
2017-05-13T14:11:20.102Z,26.16
2017-05-13T14:11:48.425Z,26.31
2017-05-13T14:12:16.730Z,26.38
2017-05-13T14:12:44.983Z,26.52
2017-05-13T14:13:13.316Z,26.56
2017-05-13T14:13:41.689Z,26.78
2017-05-13T14:14:09.886Z,26.71
2017-05-13T14:14:38.051Z,26.82
2017-05-13T14:15:06.197Z,26.79
2017-05-13T14:15:34.432Z,26.87
2017-05-13T14:16:02.608Z,26.97
2017-05-13T14:16:30.681Z,27.06
2017-05-13T14:16:58.840Z,27.12
2017-05-13T14:17:26.970Z,27.16
2017-05-13T14:17:55.196Z,27.24
2017-05-13T14:18:23.424Z,27.33
2017-05-13T14:18:51.885Z,27.37
2017-05-13T14:19:20.146Z,27.48
2017-05-13T14:19:48.249Z,27.52
2017-05-13T14:20:16.364Z,27.57
2017-05-13T14:20:44.494Z,27.64
2017-05-13T14:21:12.612Z,27.76
2017-05-13T14:21:40.695Z,27.74
2017-05-13T14:22:08.790Z,27.91
2017-05-13T14:22:36.790Z,27.98
2017-05-13T14:23:04.807Z,28.09
2017-05-13T14:23:33.002Z,28.12
2017-05-13T14:24:01.432Z,27.99
2017-05-13T14:24:29.536Z,28.08
2017-05-13T14:24:57.720Z,28.05
2017-05-13T14:25:25.888Z,28.11
2017-05-13T14:25:54.011Z,28.2
2017-05-13T14:26:22.073Z,28.21
2017-05-13T14:26:50.263Z,28.38
2017-05-13T14:27:18.331Z,28.28
2017-05-13T14:27:46.428Z,28.49
2017-05-13T14:28:14.597Z,28.49
2017-05-13T14:28:42.637Z,28.48
2017-05-13T14:29:10.987Z,28.65
2017-05-13T14:29:39.039Z,28.73
2017-05-13T14:30:07.203Z,28.73
2017-05-13T14:30:35.455Z,28.73
2017-05-13T14:31:03.738Z,28.76
2017-05-13T14:31:32.079Z,28.78
2017-05-13T14:32:00.288Z,28.76
2017-05-13T14:32:28.544Z,28.78
2017-05-13T14:32:56.935Z,28.85
2017-05-13T14:33:25.065Z,28.85
2017-05-13T14:33:53.497Z,28.91
2017-05-13T14:34:21.647Z,28.98
2017-05-13T14:34:50.005Z,29.13
2017-05-13T14:35:18.230Z,29.11
2017-05-13T14:35:49.799Z,29.18
2017-05-13T14:36:18.122Z,29.29
2017-05-13T14:36:46.456Z,29.3
2017-05-13T14:37:14.705Z,29.42
2017-05-13T14:37:42.957Z,29.54
2017-05-13T14:38:11.147Z,29.79
2017-05-13T14:38:39.322Z,29.82
2017-05-13T14:39:07.346Z,29.82
2017-05-13T14:39:35.345Z,29.91
2017-05-13T14:40:03.570Z,29.87
2017-05-13T14:40:31.775Z,29.82
2017-05-13T14:40:59.995Z,29.89
2017-05-13T14:41:28.562Z,29.95
2017-05-13T14:41:57.135Z,30.02
2017-05-13T14:42:25.235Z,30.1
2017-05-13T14:42:53.547Z,30.04
2017-05-13T14:43:21.770Z,30.09
2017-05-13T14:43:49.916Z,30.18
2017-05-13T14:44:18.369Z,30.31
2017-05-13T14:44:46.658Z,30.4
2017-05-13T14:45:14.778Z,30.51
2017-05-13T14:45:43.047Z,30.79
2017-05-13T14:46:11.157Z,30.89
2017-05-13T14:46:39.542Z,30.99
2017-05-13T14:47:07.836Z,31.01
2017-05-13T14:47:35.931Z,31.12
2017-05-13T14:48:04.119Z,31.16
2017-05-13T14:48:32.204Z,31.36
2017-05-13T14:49:00.467Z,31.45
2017-05-13T14:49:28.788Z,31.58
2017-05-13T14:49:57.011Z,31.41
2017-05-13T14:50:25.372Z,31.44
2017-05-13T14:50:53.912Z,31.34
2017-05-13T14:51:22.306Z,31.34
2017-05-13T14:51:50.888Z,31.22
2017-05-13T14:52:19.747Z,31.38
2017-05-13T14:52:48.519Z,31.5
2017-05-13T14:53:17.149Z,31.62
2017-05-13T14:53:45.161Z,31.68
2017-05-13T14:54:13.907Z,31.78
2017-05-13T14:54:42.044Z,31.78
2017-05-13T14:55:10.227Z,31.78
2017-05-13T14:55:38.529Z,31.62
2017-05-13T14:56:07.218Z,31.56
2017-05-13T14:56:35.759Z,31.6
2017-05-13T14:57:04.566Z,31.62
2017-05-13T14:57:32.701Z,31.67
2017-05-13T14:58:01.295Z,31.6
2017-05-13T14:58:29.247Z,31.47
2017-05-13T14:58:57.632Z,31.49
2017-05-13T14:59:26.183Z,31.49
2017-05-13T14:59:54.617Z,31.49
2017-05-13T15:00:23.162Z,31.5
2017-05-13T15:00:51.285Z,31.43
2017-05-13T15:01:19.290Z,31.52
2017-05-13T15:01:47.674Z,31.5
2017-05-13T15:02:15.788Z,31.52
2017-05-13T15:02:44.757Z,31.47
2017-05-13T15:03:13.145Z,31.34
2017-05-13T15:03:41.637Z,31.23
2017-05-13T15:04:10.113Z,31.26
2017-05-13T15:04:38.407Z,31.04
2017-05-13T15:05:06.757Z,30.89
2017-05-13T15:05:34.941Z,30.77
2017-05-13T15:06:03.238Z,30.56
2017-05-13T15:06:31.412Z,30.32
2017-05-13T15:07:00.181Z,30.19
2017-05-13T15:07:28.510Z,29.98
2017-05-13T15:07:57.195Z,29.98
2017-05-13T15:08:25.336Z,29.79
2017-05-13T15:08:54.079Z,29.76
2017-05-13T15:09:22.333Z,29.87
2017-05-13T15:09:51.030Z,29.76
2017-05-13T15:10:19.472Z,29.87
2017-05-13T15:10:47.749Z,29.95
2017-05-13T15:11:16.309Z,30
2017-05-13T15:11:44.534Z,30.06
2017-05-13T15:12:13.121Z,30.11
2017-05-13T15:12:41.431Z,30.34
2017-05-13T15:13:09.615Z,30.44
2017-05-13T15:13:38.214Z,30.69
2017-05-13T15:14:06.472Z,30.73
2017-05-13T15:14:35.136Z,30.79
2017-05-13T15:15:03.338Z,30.94
2017-05-13T15:15:32.201Z,30.89
2017-05-13T15:16:00.484Z,30.84
2017-05-13T15:16:29.129Z,30.63
2017-05-13T15:16:57.343Z,30.34
2017-05-13T15:17:26.656Z,30.19
2017-05-13T15:17:54.861Z,30.06
2017-05-13T15:18:23.267Z,29.94
2017-05-13T15:18:51.473Z,29.76
2017-05-13T15:19:20.352Z,29.63
2017-05-13T15:19:48.893Z,29.69
2017-05-13T15:20:17.063Z,29.67
2017-05-13T15:20:45.229Z,29.65
2017-05-13T15:21:13.718Z,29.57
2017-05-13T15:21:42.926Z,29.47
2017-05-13T15:22:11.572Z,29.29
2017-05-13T15:22:39.962Z,29.08
2017-05-13T15:23:08.485Z,29.02
2017-05-13T15:23:36.766Z,28.9
2017-05-13T15:24:05.340Z,28.88
2017-05-13T15:24:34.124Z,28.88
2017-05-13T15:25:02.430Z,28.97
2017-05-13T15:25:31.154Z,29.05
2017-05-13T15:25:59.595Z,29.17
2017-05-13T15:26:28.431Z,29.24
2017-05-13T15:26:56.535Z,29.3
2017-05-13T15:27:24.876Z,29.35
2017-05-13T15:27:53.052Z,29.38
2017-05-13T15:28:21.494Z,29.4
2017-05-13T15:28:49.584Z,29.38
2017-05-13T15:29:17.926Z,29.21
2017-05-13T15:29:46.739Z,29.26
2017-05-13T15:30:15.372Z,29.08
2017-05-13T15:30:43.870Z,29.14
2017-05-13T15:31:12.143Z,28.95
2017-05-13T15:31:41.166Z,28.94
2017-05-13T15:32:09.241Z,28.91
2017-05-13T15:32:37.680Z,28.86
2017-05-13T15:33:06.475Z,28.8
2017-05-13T15:33:35.020Z,28.57
2017-05-13T15:34:03.203Z,28.64
2017-05-13T15:34:31.909Z,28.61
2017-05-13T15:35:00.544Z,28.6
2017-05-13T15:35:28.640Z,28.54
2017-05-13T15:35:56.924Z,28.48
2017-05-13T15:36:25.143Z,28.55
2017-05-13T15:36:53.427Z,28.49
2017-05-13T15:37:21.693Z,28.57
2017-05-13T15:37:50.136Z,28.49
2017-05-13T15:38:18.664Z,28.48
2017-05-13T15:38:47.157Z,28.35
2017-05-13T15:39:15.977Z,28.27
2017-05-13T15:39:44.108Z,28.21
2017-05-13T15:40:12.747Z,28.16
2017-05-13T15:40:40.960Z,28.14
2017-05-13T15:41:09.020Z,28.03
2017-05-13T15:41:37.097Z,28.11
2017-05-13T15:42:05.304Z,28.01
2017-05-13T15:42:33.609Z,28.01
2017-05-13T15:43:01.908Z,27.99
2017-05-13T15:43:30.144Z,27.96
2017-05-13T15:43:58.500Z,27.99
2017-05-13T15:44:27.022Z,27.91
2017-05-13T15:44:55.253Z,27.99
2017-05-13T15:45:23.412Z,28.03
2017-05-13T15:45:51.566Z,28.12
2017-05-13T15:46:19.857Z,28.21
2017-05-13T15:46:48.150Z,28.23
2017-05-13T15:47:16.477Z,28.21
2017-05-13T15:47:44.680Z,28.45
2017-05-13T15:48:12.791Z,28.46
2017-05-13T15:48:40.965Z,28.54
2017-05-13T15:49:09.247Z,28.53
2017-05-13T15:49:37.605Z,28.51
2017-05-13T15:50:05.817Z,28.41
2017-05-13T15:50:34.076Z,28.55
2017-05-13T15:51:02.387Z,28.48
2017-05-13T15:51:30.502Z,28.38
2017-05-13T15:51:58.818Z,28.35
2017-05-13T15:52:26.908Z,28.3
2017-05-13T15:52:55.087Z,28.28
2017-05-13T15:53:23.179Z,28.41
2017-05-13T15:53:51.332Z,28.39
2017-05-13T15:54:19.755Z,28.38
2017-05-13T15:54:48.028Z,28.36
2017-05-13T15:55:16.076Z,28.49
2017-05-13T15:55:44.320Z,28.46
2017-05-13T15:56:12.573Z,28.48
2017-05-13T15:56:40.760Z,28.61
2017-05-13T15:57:09.064Z,28.63
2017-05-13T15:57:37.332Z,28.73
2017-05-13T15:58:05.421Z,28.67
2017-05-13T15:58:33.546Z,28.75
2017-05-13T15:59:01.702Z,28.83
2017-05-13T15:59:29.795Z,28.85
2017-05-13T15:59:57.963Z,28.9
2017-05-13T16:00:26.202Z,28.95
2017-05-13T16:00:54.424Z,29.05
2017-05-13T16:01:22.629Z,29.1
2017-05-13T16:01:50.959Z,29.21
2017-05-13T16:02:19.226Z,29.35
2017-05-13T16:02:47.292Z,29.47
2017-05-13T16:03:15.447Z,29.69
2017-05-13T16:03:43.685Z,29.79
2017-05-13T16:04:11.824Z,29.92
2017-05-13T16:04:40.003Z,29.95
2017-05-13T16:05:08.211Z,30
2017-05-13T16:05:36.448Z,30.03
2017-05-13T16:06:04.644Z,30.06
2017-05-13T16:06:32.684Z,30.07
2017-05-13T16:07:00.897Z,30.21
2017-05-13T16:07:29.109Z,30.25
2017-05-13T16:07:57.264Z,30.29
2017-05-13T16:08:25.612Z,30.29
2017-05-13T16:08:53.904Z,30.26
2017-05-13T16:09:22.683Z,30.31
2017-05-13T16:09:51.165Z,30.47
2017-05-13T16:10:19.625Z,30.51
2017-05-13T16:10:48.404Z,30.63
2017-05-13T16:11:16.675Z,30.6
2017-05-13T16:11:44.943Z,30.64
2017-05-13T16:12:13.566Z,30.66
2017-05-13T16:12:42.268Z,30.64
2017-05-13T16:13:10.558Z,30.69
2017-05-13T16:13:38.768Z,30.67
2017-05-13T16:14:07.114Z,30.64
2017-05-13T16:14:35.437Z,30.64
2017-05-13T16:15:03.919Z,30.64
2017-05-13T16:15:32.574Z,30.63
2017-05-13T16:16:01.234Z,30.45
2017-05-13T16:16:29.549Z,30.34
2017-05-13T16:16:58.203Z,30.14
2017-05-13T16:17:26.422Z,30
2017-05-13T16:17:54.607Z,29.91
2017-05-13T16:18:22.753Z,29.73
2017-05-13T16:18:50.923Z,29.76
2017-05-13T16:19:19.187Z,29.72
2017-05-13T16:19:47.589Z,29.85
2017-05-13T16:20:15.817Z,29.94
2017-05-13T16:20:43.980Z,30.1
2017-05-13T16:21:12.079Z,30.11
2017-05-13T16:21:40.254Z,30.26
2017-05-13T16:22:08.532Z,30.26
2017-05-13T16:22:36.801Z,30.21
2017-05-13T16:23:04.984Z,30.44
2017-05-13T16:23:33.309Z,30.49
2017-05-13T16:24:01.585Z,30.49
2017-05-13T16:24:30.059Z,30.37
2017-05-13T16:24:58.330Z,30.26
2017-05-13T16:25:26.536Z,30.09
2017-05-13T16:25:54.836Z,29.92
2017-05-13T16:26:22.897Z,29.89
2017-05-13T16:26:51.128Z,29.66
2017-05-13T16:27:19.305Z,29.58
2017-05-13T16:27:47.527Z,29.51
2017-05-13T16:28:15.716Z,29.36
2017-05-13T16:28:43.865Z,29.32
2017-05-13T16:29:12.196Z,29.29
2017-05-13T16:29:40.513Z,29.38
2017-05-13T16:30:08.700Z,29.43
2017-05-13T16:30:36.855Z,29.51